Kolin, Czech Republic
Current Conditions -  °F | °C
As of 2:00 PM on Wednesday 22 Oct 2014 (Local Time) from LKCV Reporting Station
Light Rain Light Rain  
Wind Chill: 38°   Ceiling: 3000
Heat Index: 45°   Visibility: 6mi
Dew Point: 43°   Wind: 15mph
Humidity: 93%   Direction: 280°W
Pressure: 29.74"   Gusts: NA
Location:  50.03°N, 15.19°E
Report Text: LKCV 221200Z 28013KT 9999 -RA SCT022 OVC030 07/06 Q1007 NOSIG
Loading
Personal Weather Stations






























Interactive Weather Map
Tropical Storm Tracking
New forecast layout! Learn more

10-Day Weather Forecast

Advertisements
Track Severe Weather on mobile